KCGZ/CGZ METAR and TAF weather

Enter ICAO airport designator
Station Type Date Time Source
KCGZ METAR 2021/05/13 05:56 UTC NOAA

KCGZ 130556Z AUTO 29008KT 10SM CLR 28/M04 A2996 RMK AO2 SLP130 6//// T02781044 10356 20267 53016


Station Type Date Time Source
KCGZ Decoded METAR 2021/05/13 05:56 UTC NOAA

Casa Grande, Casa Grande Municipal Airport, AZ, United States (KCGZ) 32-57N 111-46W
May 13, 2021 - 01:56 AM EDT / 2021.05.13 0556 UTC
Wind: from the WNW (290 degrees) at 9 MPH (8 KT):0
Visibility: 10 mile(s):0
Sky conditions: clear
Temperature: 82.0 F (27.8 C)
Dew Point: 24.1 F (-4.4 C)
Relative Humidity: 11%
Pressure (altimeter): 29.96 in. Hg (1014 hPa)
Pressure tendency: 0.05 inches (1.6 hPa) higher than three hours ago
ob: KCGZ 130556Z AUTO 29008KT 10SM CLR 28/M04 A2996 RMK AO2 SLP130 6//// T02781044 10356 20267 53016
cycle: 6

Station Type Date Time Source
KCGZ TAF UTC NOAA

Error!

Example: see airport list